Time;durP1;ratioP1;P1;durP2;ratioP2;P2;SDS_P1;SDS_P2;PMS_P1;PMS_P2;Temp;Humidity;BMP_temperature;BMP_pressure;BME280_temperature;BME280_humidity;BME280_pressure;Samples;Min_cycle;Max_cycle;Signal;HPM_P1;HPM_P2
2022/08/20 00:00:40;;;;;;;;;1.75;1.75;;;;;19.08;62.85;101627.91;5078435;27;45479;-76
2022/08/20 00:03:29;;;;;;;;;2.50;2.00;;;;;19.09;62.65;101630.47;5078185;27;46286;-76
2022/08/20 00:05:58;;;;;;;;;2.75;2.75;;;;;19.06;62.96;101629.78;5078070;27;45292;-76
2022/08/20 00:08:23;;;;;;;;;2.00;2.00;;;;;19.00;63.44;101622.16;5077159;27;45363;-76
2022/08/20 00:10:50;;;;;;;;;4.00;3.00;;;;;18.99;63.12;101621.31;5077852;27;52867;-76
2022/08/20 00:13:23;;;;;;;;;1.50;1.50;;;;;18.99;63.44;101623.09;5078055;27;45360;-76
2022/08/20 00:15:49;;;;;;;;;2.00;2.00;;;;;18.94;63.70;101621.56;5076856;27;45763;-76
2022/08/20 00:18:14;;;;;;;;;6.75;1.00;;;;;18.94;63.08;101623.31;5077017;28;45389;-76
2022/08/20 00:20:42;;;;;;;;;3.50;3.00;;;;;18.94;63.20;101625.94;5077151;27;53665;-76
2022/08/20 00:23:08;;;;;;;;;1.75;1.00;;;;;18.89;63.10;101618.28;5076573;28;46375;-76
2022/08/20 00:25:34;;;;;;;;;3.50;2.50;;;;;18.84;63.51;101619.44;5077984;27;45439;-76
2022/08/20 00:28:02;;;;;;;;;4.25;3.00;;;;;18.81;63.48;101615.16;5076845;27;45497;-76
2022/08/20 00:30:28;;;;;;;;;3.00;3.00;;;;;18.78;64.16;101617.94;5077875;27;45494;-76
2022/08/20 00:32:56;;;;;;;;;5.00;2.00;;;;;18.76;63.83;101625.06;5076429;27;45445;-75
2022/08/20 00:35:24;;;;;;;;;4.50;3.00;;;;;18.72;63.69;101620.84;5077198;27;45773;-76
2022/08/20 00:37:50;;;;;;;;;3.00;2.25;;;;;18.65;63.93;101620.31;5076705;27;45338;-76
2022/08/20 00:40:19;;;;;;;;;4.75;1.75;;;;;18.63;64.13;101624.81;5077793;28;45347;-76
2022/08/20 00:42:50;;;;;;;;;2.00;2.00;;;;;18.58;63.90;101619.75;5077605;27;45518;-75
2022/08/20 00:45:17;;;;;;;;;2.75;2.00;;;;;18.61;64.32;101625.81;5076181;27;45426;-76
2022/08/20 00:47:43;;;;;;;;;3.75;3.00;;;;;18.56;64.06;101618.13;5076605;28;45445;-76
2022/08/20 00:50:14;;;;;;;;;3.00;2.50;;;;;18.53;64.48;101613.00;5077207;27;45382;-76
2022/08/20 00:52:41;;;;;;;;;3.50;2.00;;;;;18.49;64.17;101619.34;5076119;27;45525;-76
2022/08/20 00:55:09;;;;;;;;;5.00;3.00;;;;;18.42;64.87;101608.22;5076140;28;45807;-76
2022/08/20 00:57:39;;;;;;;;;3.00;3.00;;;;;18.42;64.82;101612.66;5077637;27;45412;-75
2022/08/20 01:00:10;;;;;;;;;3.00;3.00;;;;;18.44;64.79;101611.66;5076405;28;45453;-76
2022/08/20 01:02:36;;;;;;;;;3.00;2.00;;;;;18.42;64.82;101610.03;5076004;27;45491;-75
2022/08/20 01:05:02;;;;;;;;;4.50;3.00;;;;;18.44;64.88;101621.34;5075566;28;45337;-76
2022/08/20 01:07:32;;;;;;;;;3.25;3.00;;;;;18.43;65.48;101620.50;5077578;28;45421;-76
2022/08/20 01:10:04;;;;;;;;;4.00;3.00;;;;;18.44;64.86;101610.81;5077092;27;45504;-75
2022/08/20 01:12:31;;;;;;;;;5.00;2.75;;;;;18.35;64.76;101614.75;5075883;27;47208;-76
2022/08/20 01:14:58;;;;;;;;;6.00;3.75;;;;;18.32;64.86;101605.19;5075863;28;45303;-75
2022/08/20 01:17:25;;;;;;;;;5.50;3.00;;;;;18.31;65.07;101610.53;5076108;27;45405;-76
2022/08/20 01:20:10;;;;;;;;;6.00;3.00;;;;;18.27;65.55;101606.34;5075577;28;45549;-76
2022/08/20 01:25:45;;;;;;;;;3.75;3.75;;;;;18.27;65.40;101606.34;5077022;27;45359;-76
2022/08/20 01:28:12;;;;;;;;;5.25;3.00;;;;;18.25;65.59;101614.31;5075880;28;45341;-76
2022/08/20 01:30:37;;;;;;;;;3.25;1.00;;;;;18.17;65.73;101604.13;5075768;27;45342;-76
2022/08/20 01:33:04;;;;;;;;;2.75;2.00;;;;;18.12;65.88;101610.56;5075102;28;45314;-76
2022/08/20 01:35:29;;;;;;;;;5.00;3.00;;;;;18.06;65.38;101611.69;5076622;27;45751;-76
2022/08/20 01:37:54;;;;;;;;;8.00;4.00;;;;;18.03;66.02;101619.72;5077042;27;45456;-76
2022/08/20 01:40:43;;;;;;;;;5.25;2.75;;;;;17.97;65.91;101615.59;5076929;28;45410;-76
2022/08/20 01:43:09;;;;;;;;;4.25;3.25;;;;;17.96;65.86;101623.59;5075373;28;47448;-76
2022/08/20 01:45:35;;;;;;;;;4.25;3.00;;;;;17.88;66.08;101617.81;5074528;27;67880;-76
2022/08/20 01:48:01;;;;;;;;;4.25;3.50;;;;;17.82;66.46;101620.69;5075881;27;45476;-76
2022/08/20 01:50:27;;;;;;;;;5.25;3.00;;;;;17.79;66.38;101624.31;5076577;28;45369;-76
2022/08/20 01:52:58;;;;;;;;;3.25;3.00;;;;;17.73;66.36;101632.50;5075422;28;45525;-76
2022/08/20 01:55:25;;;;;;;;;3.25;3.25;;;;;17.69;67.17;101623.88;5075226;28;45343;-76
2022/08/20 01:57:50;;;;;;;;;2.00;2.00;;;;;17.68;67.15;101635.34;5075390;27;45492;-76
2022/08/20 02:00:18;;;;;;;;;5.00;3.50;;;;;17.62;66.31;101638.22;5075605;28;69254;-76
2022/08/20 02:02:44;;;;;;;;;3.50;3.00;;;;;17.60;66.42;101638.28;5074822;27;46364;-75
2022/08/20 02:05:10;;;;;;;;;2.25;2.00;;;;;17.58;66.84;101634.03;5075161;27;71968;-75
2022/08/20 02:07:36;;;;;;;;;5.00;4.25;;;;;17.57;66.29;101645.50;5076473;27;45342;-76
2022/08/20 02:10:04;;;;;;;;;3.00;2.25;;;;;17.53;66.31;101630.72;5075117;28;45512;-76
2022/08/20 02:12:30;;;;;;;;;5.00;3.00;;;;;17.55;67.09;101645.56;5076266;27;46132;-76
2022/08/20 02:14:55;;;;;;;;;4.50;2.00;;;;;17.55;66.34;101644.69;5074269;28;65176;-76
2022/08/20 02:17:22;;;;;;;;;3.00;3.00;;;;;17.52;66.76;101644.84;5075999;27;45472;-76
2022/08/20 02:19:50;;;;;;;;;2.00;2.00;;;;;17.48;66.42;101643.25;5075052;27;45421;-76
2022/08/20 02:22:35;;;;;;;;;4.75;2.75;;;;;17.47;66.74;101645.00;5074803;28;46678;-76
2022/08/20 02:25:01;;;;;;;;;3.75;2.00;;;;;17.49;66.93;101648.44;5074941;27;45683;-76
2022/08/20 02:27:26;;;;;;;;;3.25;2.00;;;;;17.48;67.02;101641.47;5076138;27;45294;-75
2022/08/20 02:29:52;;;;;;;;;5.50;3.00;;;;;17.51;66.70;101643.09;5075920;27;45856;-76
2022/08/20 02:32:17;;;;;;;;;4.75;2.50;;;;;17.51;66.76;101646.59;5075440;27;45337;-76
2022/08/20 02:34:43;;;;;;;;;5.00;2.75;;;;;17.45;66.81;101638.97;5075576;28;45232;-76
2022/08/20 02:37:10;;;;;;;;;2.50;2.00;;;;;17.41;66.55;101637.41;5075054;27;69289;-75
2022/08/20 02:39:35;;;;;;;;;2.00;2.00;;;;;17.38;66.96;101641.03;5076102;27;45461;-76
2022/08/20 02:42:02;;;;;;;;;4.00;2.00;;;;;17.35;67.40;101643.78;5075824;28;46156;-76
2022/08/20 02:44:28;;;;;;;;;3.00;2.00;;;;;17.33;67.74;101637.72;5075799;27;45794;-76
2022/08/20 02:46:54;;;;;;;;;1.00;1.00;;;;;17.32;67.56;101637.78;5075625;27;45288;-75
2022/08/20 02:49:19;;;;;;;;;2.75;2.75;;;;;17.31;67.24;101646.59;5075995;27;45404;-76
2022/08/20 02:51:45;;;;;;;;;2.50;2.25;;;;;17.29;67.95;101645.81;5074713;27;74569;-76
2022/08/20 02:54:11;;;;;;;;;2.00;2.00;;;;;17.24;67.80;101642.53;5074272;28;45314;-76
2022/08/20 02:56:37;;;;;;;;;2.00;2.00;;;;;17.17;67.75;101647.19;5075872;27;45476;-76
2022/08/20 02:59:03;;;;;;;;;3.75;2.00;;;;;17.08;67.82;101644.94;5075865;27;45382;-75
2022/08/20 03:01:30;;;;;;;;;2.00;2.00;;;;;17.09;68.01;101655.41;5078606;27;46705;-76
2022/08/20 03:03:57;;;;;;;;;4.00;1.75;;;;;17.09;67.98;101662.47;5079323;27;45367;-76
2022/08/20 03:06:24;;;;;;;;;3.00;3.00;;;;;17.09;68.13;101658.03;5079271;27;45478;-76
2022/08/20 03:08:49;;;;;;;;;2.00;2.00;;;;;17.08;68.45;101653.69;5079499;27;45447;-76
2022/08/20 03:11:15;;;;;;;;;2.00;2.00;;;;;17.10;68.38;101649.22;5078296;27;59767;-75
2022/08/20 03:13:40;;;;;;;;;4.50;2.75;;;;;17.11;68.18;101653.56;5079134;27;45387;-76
2022/08/20 03:16:07;;;;;;;;;5.75;4.00;;;;;17.07;68.35;101649.38;5078885;27;45344;-76
2022/08/20 03:18:39;;;;;;;;;3.50;2.50;;;;;17.05;68.64;101651.19;5077937;27;45294;-76
2022/08/20 03:21:06;;;;;;;;;3.50;2.00;;;;;17.03;68.65;101653.88;5077718;27;46450;-75
2022/08/20 03:23:32;;;;;;;;;4.00;1.00;;;;;17.01;69.02;101652.22;5078867;27;45779;-76
2022/08/20 03:25:58;;;;;;;;;4.75;1.00;;;;;16.97;68.88;101640.13;5079295;27;45307;-76
2022/08/20 03:28:23;;;;;;;;;2.00;2.00;;;;;16.92;69.12;101642.97;5079077;27;45299;-76
2022/08/20 03:30:50;;;;;;;;;2.75;2.00;;;;;16.89;68.98;101640.44;5077001;28;47640;-76
2022/08/20 03:33:16;;;;;;;;;3.25;2.00;;;;;16.90;69.06;101650.06;5077449;28;46238;-75
2022/08/20 03:35:41;;;;;;;;;4.00;2.00;;;;;16.86;69.26;101648.44;5077471;27;45456;-75
2022/08/20 03:38:08;;;;;;;;;4.00;2.00;;;;;16.87;69.09;101642.28;5077823;27;70462;-76
2022/08/20 03:40:34;;;;;;;;;6.50;3.00;;;;;16.86;68.90;101645.81;5077497;28;45417;-76
2022/08/20 03:43:00;;;;;;;;;3.75;2.25;;;;;16.86;69.10;101650.22;5078618;27;45449;-76
2022/08/20 03:45:26;;;;;;;;;2.75;2.00;;;;;16.83;69.03;101652.06;5077231;27;45306;-75
2022/08/20 03:47:53;;;;;;;;;5.00;3.75;;;;;16.79;69.23;101653.09;5078698;27;45460;-75
2022/08/20 03:50:22;;;;;;;;;3.25;2.25;;;;;16.78;69.29;101658.41;5077242;28;46353;-76
2022/08/20 03:52:47;;;;;;;;;1.75;1.50;;;;;16.73;69.10;101655.94;5078399;27;45856;-76
2022/08/20 03:55:12;;;;;;;;;2.00;2.00;;;;;16.74;69.85;101659.44;5077107;28;45454;-76
2022/08/20 03:57:53;;;;;;;;;3.00;2.00;;;;;16.67;69.82;101660.59;5077540;27;69400;-76
2022/08/20 04:00:22;;;;;;;;;1.25;1.25;;;;;16.59;69.60;101660.91;5076802;28;46467;-75
2022/08/20 04:02:47;;;;;;;;;4.00;1.00;;;;;16.51;69.85;101663.84;5078496;27;45431;-77
2022/08/20 04:05:13;;;;;;;;;4.25;3.25;;;;;16.54;69.90;101662.88;5078381;27;45449;-77
2022/08/20 04:07:39;;;;;;;;;6.00;3.25;;;;;16.51;69.99;101668.22;5077387;27;67578;-76
2022/08/20 04:10:08;;;;;;;;;2.75;2.75;;;;;16.44;69.79;101654.50;5078199;27;47039;-75
2022/08/20 04:12:39;;;;;;;;;8.75;3.50;;;;;16.47;70.12;101662.22;5077488;28;45351;-76
2022/08/20 04:15:15;;;;;;;;;3.75;3.25;;;;;16.41;69.89;101658.06;5077263;27;45428;-75
2022/08/20 04:17:43;;;;;;;;;6.25;3.00;;;;;16.43;70.10;101656.22;5078193;27;45352;-75
2022/08/20 04:20:11;;;;;;;;;4.50;2.75;;;;;16.44;69.61;101665.84;5076769;28;47327;-75
2022/08/20 04:22:36;;;;;;;;;5.00;3.00;;;;;16.42;69.86;101659.81;5076814;27;45369;-76
2022/08/20 04:25:04;;;;;;;;;4.75;3.00;;;;;16.41;69.92;101660.69;5078084;28;45309;-76
2022/08/20 04:27:31;;;;;;;;;5.00;4.00;;;;;16.39;70.08;101661.69;5077798;27;45339;-78
2022/08/20 04:29:57;;;;;;;;;6.00;4.00;;;;;16.37;70.79;101656.47;5076644;28;47487;-78
2022/08/20 04:32:22;;;;;;;;;9.50;3.00;;;;;16.41;69.84;101665.97;5077555;28;45331;-78
2022/08/20 04:34:50;;;;;;;;;5.50;3.00;;;;;16.38;69.91;101660.84;5077798;28;45345;-78
2022/08/20 04:37:18;;;;;;;;;2.25;2.00;;;;;16.34;69.94;101661.84;5077839;27;45277;-76
2022/08/20 04:39:43;;;;;;;;;6.25;4.00;;;;;16.30;69.97;101659.41;5076682;27;46526;-76
2022/08/20 04:42:09;;;;;;;;;2.00;2.00;;;;;16.24;69.99;101660.50;5076782;28;59866;-76
2022/08/20 04:44:34;;;;;;;;;2.25;2.00;;;;;16.22;70.09;101663.19;5076869;28;68302;-75
2022/08/20 04:47:00;;;;;;;;;3.75;2.00;;;;;16.19;70.25;101662.44;5076703;27;69490;-76
2022/08/20 04:49:26;;;;;;;;;3.00;3.00;;;;;16.15;70.32;101656.44;5077643;27;45448;-76
2022/08/20 04:51:53;;;;;;;;;3.00;3.00;;;;;16.21;70.39;101664.13;5077414;27;45294;-78
2022/08/20 04:54:18;;;;;;;;;6.50;3.00;;;;;16.20;69.77;101664.16;5076052;28;45484;-78
2022/08/20 04:56:44;;;;;;;;;8.00;2.25;;;;;16.16;70.09;101658.16;5076858;28;45992;-75
2022/08/20 04:59:09;;;;;;;;;3.00;2.00;;;;;16.17;69.87;101672.16;5077290;27;45382;-76
2022/08/20 05:01:35;;;;;;;;;6.25;2.50;;;;;16.13;70.04;101660.06;5076089;28;45338;-76
2022/08/20 05:04:00;;;;;;;;;4.00;2.00;;;;;16.13;70.28;101667.94;5076747;27;61563;-75
2022/08/20 05:06:28;;;;;;;;;4.00;4.00;;;;;16.12;69.62;101668.84;5077334;27;45417;-75
2022/08/20 05:08:55;;;;;;;;;2.25;2.25;;;;;16.11;70.13;101678.50;5076149;27;45493;-75
2022/08/20 05:11:21;;;;;;;;;3.25;3.25;;;;;16.12;70.05;101682.84;5076854;27;45676;-76
2022/08/20 05:13:47;;;;;;;;;5.75;3.00;;;;;16.13;69.87;101683.69;5077277;27;45532;-75
2022/08/20 05:16:14;;;;;;;;;5.00;2.75;;;;;16.18;70.28;101681.75;5076121;28;45281;-75
2022/08/20 05:18:39;;;;;;;;;5.00;2.50;;;;;16.25;70.04;101685.84;5076981;27;45680;-76
2022/08/20 05:21:05;;;;;;;;;5.00;2.25;;;;;16.24;69.99;101685.00;5076967;27;45277;-76
2022/08/20 05:23:35;;;;;;;;;4.75;3.00;;;;;16.28;69.85;101680.47;5076222;28;45316;-78
2022/08/20 05:26:06;;;;;;;;;5.00;3.00;;;;;16.29;69.44;101681.31;5076770;27;45470;-76
2022/08/20 05:28:31;;;;;;;;;3.00;3.00;;;;;16.28;69.42;101682.25;5076851;27;46548;-76
2022/08/20 05:30:59;;;;;;;;;3.75;3.25;;;;;16.29;69.42;101687.47;5077053;27;45353;-75
2022/08/20 05:33:25;;;;;;;;;4.25;2.00;;;;;16.28;69.93;101685.72;5076913;27;45308;-75
2022/08/20 05:35:52;;;;;;;;;7.25;3.00;;;;;16.27;69.86;101686.66;5076737;27;45479;-76
2022/08/20 05:38:20;;;;;;;;;6.00;3.00;;;;;16.28;69.70;101695.41;5075578;28;45555;-76
2022/08/20 05:40:46;;;;;;;;;4.25;2.00;;;;;16.30;70.00;101693.56;5076479;27;45740;-76
2022/08/20 05:43:12;;;;;;;;;2.25;1.00;;;;;16.28;69.80;101704.13;5077118;27;45330;-76
2022/08/20 05:45:39;;;;;;;;;4.75;2.50;;;;;16.24;69.89;101700.75;5075632;28;45879;-76
2022/08/20 05:48:12;;;;;;;;;5.75;2.00;;;;;16.24;69.48;101700.75;5076532;27;46350;-76
2022/08/20 05:50:39;;;;;;;;;4.00;2.00;;;;;16.28;69.92;101709.38;5075377;27;45798;-76
2022/08/20 05:53:05;;;;;;;;;2.75;2.75;;;;;16.25;69.21;101710.38;5076748;27;45431;-76
2022/08/20 05:55:30;;;;;;;;;4.75;2.00;;;;;16.28;69.67;101700.66;5076098;27;45491;-75
2022/08/20 05:58:00;;;;;;;;;4.50;2.00;;;;;16.29;69.44;101703.22;5076429;28;45895;-75
2022/08/20 06:00:27;;;;;;;;;9.00;2.00;;;;;16.29;69.95;101699.72;5075152;27;45472;-75
2022/08/20 06:05:36;;;;;;;;;3.00;3.00;;;;;16.37;69.44;101709.03;5076675;28;45471;-75
2022/08/20 06:08:04;;;;;;;;;2.25;1.25;;;;;16.41;69.32;101712.41;5074090;27;75718;-75
2022/08/20 06:10:29;;;;;;;;;2.75;2.75;;;;;16.43;70.07;101713.19;5075828;27;46043;-75
2022/08/20 06:12:54;;;;;;;;;4.00;2.75;;;;;16.42;69.76;101716.75;5074309;28;64109;-76
2022/08/20 06:15:20;;;;;;;;;1.00;1.00;;;;;16.48;69.52;101719.16;5075436;27;70571;-75
2022/08/20 06:17:45;;;;;;;;;3.50;2.00;;;;;16.50;69.93;101714.69;5076113;28;46618;-75
2022/08/20 06:20:11;;;;;;;;;3.25;2.00;;;;;16.54;69.65;101720.69;5076204;27;45349;-75
2022/08/20 06:22:36;;;;;;;;;1.25;1.25;;;;;16.52;69.63;101717.25;5076259;28;45399;-76
2022/08/20 06:25:04;;;;;;;;;6.00;3.00;;;;;16.61;68.90;101719.53;5075772;28;45279;-75
2022/08/20 06:27:29;;;;;;;;;5.50;4.00;;;;;16.60;69.56;101723.94;5074748;28;45519;-76
2022/08/20 06:29:55;;;;;;;;;4.00;1.75;;;;;16.60;69.57;101723.94;5076069;28;45210;-75
2022/08/20 06:32:23;;;;;;;;;3.50;2.25;;;;;16.61;69.70;101725.63;5075014;28;64611;-75
2022/08/20 06:34:50;;;;;;;;;7.25;3.00;;;;;16.65;69.67;101729.00;5074679;28;45438;-75
2022/08/20 06:37:17;;;;;;;;;6.00;4.00;;;;;16.69;69.09;101732.38;5075984;27;46062;-75
2022/08/20 06:39:43;;;;;;;;;2.00;1.00;;;;;16.70;69.35;101726.22;5074303;28;45276;-75
2022/08/20 06:42:08;;;;;;;;;2.50;1.25;;;;;16.65;69.44;101710.59;5074945;28;45315;-76
2022/08/20 06:44:35;;;;;;;;;4.50;3.00;;;;;16.78;69.42;101727.59;5075868;28;45331;-75
2022/08/20 06:47:04;;;;;;;;;4.00;2.25;;;;;16.83;69.24;101724.84;5075817;27;46431;-75
2022/08/20 06:49:33;;;;;;;;;4.50;2.25;;;;;16.89;69.41;101721.97;5075869;27;45764;-75
2022/08/20 06:51:58;;;;;;;;;2.00;2.00;;;;;17.00;68.90;101726.81;5074318;28;45494;-75
2022/08/20 06:54:24;;;;;;;;;8.25;3.25;;;;;17.05;68.74;101723.97;5074501;27;70403;-76
2022/08/20 06:56:52;;;;;;;;;7.50;3.00;;;;;17.16;68.38;101727.91;5074809;28;71291;-75
2022/08/20 06:59:18;;;;;;;;;4.75;2.75;;;;;17.20;68.20;101724.22;5075661;27;45762;-75
2022/08/20 07:01:43;;;;;;;;;2.50;2.00;;;;;17.26;68.14;101723.09;5075363;28;56572;-75
2022/08/20 07:04:09;;;;;;;;;2.00;2.00;;;;;17.31;68.12;101733.44;5074559;28;70232;-76
2022/08/20 07:06:35;;;;;;;;;4.75;2.00;;;;;17.34;67.82;101726.25;5073909;27;47273;-75
2022/08/20 07:09:00;;;;;;;;;4.00;3.00;;;;;17.41;67.93;101726.88;5074688;28;72985;-75
2022/08/20 07:11:25;;;;;;;;;7.75;2.75;;;;;17.39;67.71;101719.03;5075539;27;45811;-75
2022/08/20 07:13:51;;;;;;;;;7.00;2.00;;;;;17.43;67.68;101725.03;5075557;27;45355;-75
2022/08/20 07:16:16;;;;;;;;;4.00;2.50;;;;;17.49;67.89;101727.41;5075358;27;46259;-75
2022/08/20 07:18:42;;;;;;;;;3.25;2.00;;;;;17.56;67.41;101725.38;5074210;28;45455;-76
2022/08/20 07:21:07;;;;;;;;;3.50;2.25;;;;;17.60;67.22;101733.06;5075306;27;45278;-75
2022/08/20 07:23:33;;;;;;;;;2.75;2.75;;;;;17.66;67.51;101723.19;5073134;28;68799;-76
2022/08/20 07:25:58;;;;;;;;;2.00;2.00;;;;;17.69;67.47;101725.72;5075245;27;46327;-75
2022/08/20 07:28:27;;;;;;;;;4.75;3.25;;;;;17.68;67.74;101731.88;5074725;27;67218;-75
2022/08/20 07:33:38;;;;;;;;;4.75;2.00;;;;;17.69;67.58;101733.59;5054058;28;45419;-75
2022/08/20 07:36:03;;;;;;;;;4.00;2.00;;;;;17.72;67.60;101734.34;5073464;27;46626;-75
2022/08/20 07:38:30;;;;;;;;;2.50;2.00;;;;;17.79;67.49;101741.06;5056990;28;45589;-75
2022/08/20 07:40:59;;;;;;;;;3.25;1.50;;;;;17.82;67.80;101734.78;5075371;27;45336;-75
2022/08/20 07:43:24;;;;;;;;;4.25;2.00;;;;;17.84;67.42;101734.72;5075354;28;45293;-75
2022/08/20 07:45:56;;;;;;;;;5.50;3.50;;;;;17.86;67.70;101749.56;5075812;28;46717;-75
2022/08/20 07:48:24;;;;;;;;;4.00;2.00;;;;;17.90;67.33;101742.38;5077318;28;45331;-76
2022/08/20 07:50:53;;;;;;;;;3.00;3.00;;;;;18.01;67.09;101745.38;5077190;27;45434;-75
2022/08/20 07:53:19;;;;;;;;;4.50;3.00;;;;;18.10;67.51;101746.78;5078458;27;45371;-75
2022/08/20 07:55:44;;;;;;;;;6.25;2.75;;;;;18.13;67.08;101742.22;5078378;27;46296;-75
2022/08/20 07:58:12;;;;;;;;;5.25;3.75;;;;;18.23;66.96;101744.44;5078238;27;45387;-76
2022/08/20 08:00:38;;;;;;;;;2.00;1.50;;;;;18.28;67.16;101753.00;5078368;27;45285;-76
2022/08/20 08:03:04;;;;;;;;;1.50;1.25;;;;;18.34;67.20;101752.72;5077251;27;45522;-75
2022/08/20 08:05:32;;;;;;;;;4.00;3.00;;;;;18.47;67.36;101750.38;5077974;27;46190;-75
2022/08/20 08:07:57;;;;;;;;;4.25;3.00;;;;;18.54;66.18;101746.53;5077038;28;45325;-75
2022/08/20 08:10:24;;;;;;;;;4.00;1.75;;;;;18.65;66.35;101749.53;5078169;27;45266;-75
2022/08/20 08:12:52;;;;;;;;;2.25;2.25;;;;;18.73;66.09;101754.44;5078307;27;45341;-75
2022/08/20 08:15:24;;;;;;;;;5.75;2.50;;;;;18.84;65.68;101752.19;5076878;27;45342;-75
2022/08/20 08:17:51;;;;;;;;;7.50;3.75;;;;;18.89;66.04;101758.09;5078176;27;45330;-75
2022/08/20 08:20:20;;;;;;;;;7.00;1.00;;;;;18.97;65.67;101756.88;5076701;28;45320;-76
2022/08/20 08:22:46;;;;;;;;;5.50;1.50;;;;;19.01;65.61;101751.38;5076998;27;45506;-76
2022/08/20 08:25:13;;;;;;;;;5.25;3.00;;;;;19.06;65.72;101754.66;5077897;28;45920;-75
2022/08/20 08:27:39;;;;;;;;;4.75;3.00;;;;;19.13;65.75;101760.50;5076659;27;45737;-75
2022/08/20 08:30:05;;;;;;;;;5.50;3.00;;;;;19.17;65.22;101753.25;5078157;27;45363;-76
2022/08/20 08:32:31;;;;;;;;;2.00;2.00;;;;;19.27;65.26;101752.72;5077911;27;45224;-76
2022/08/20 08:34:57;;;;;;;;;5.25;3.25;;;;;19.31;65.03;101756.06;5077197;27;46149;-76
2022/08/20 08:37:22;;;;;;;;;5.00;4.00;;;;;19.36;65.35;101753.22;5076591;28;45290;-75
2022/08/20 08:39:48;;;;;;;;;3.00;2.00;;;;;19.42;65.10;101759.03;5076651;27;45552;-76
2022/08/20 08:42:24;;;;;;;;;7.00;3.75;;;;;19.51;65.55;101757.72;5077423;28;53326;-76
2022/08/20 08:44:50;;;;;;;;;7.00;4.00;;;;;19.60;64.82;101761.69;5077763;27;45377;-76
2022/08/20 08:47:28;;;;;;;;;7.50;2.25;;;;;19.68;64.58;101757.72;5076319;27;45442;-76
2022/08/20 08:49:55;;;;;;;;;6.25;1.75;;;;;19.79;64.23;101751.91;5076212;27;45465;-77
2022/08/20 08:52:24;;;;;;;;;2.00;2.00;;;;;19.91;63.97;101753.09;5076373;28;45592;-77
2022/08/20 08:54:52;;;;;;;;;1.00;1.00;;;;;19.97;63.95;101749.28;5076001;28;45351;-77
2022/08/20 08:57:18;;;;;;;;;4.50;2.00;;;;;20.08;62.84;101753.03;5074979;27;45641;-78
2022/08/20 08:59:47;;;;;;;;;3.75;2.50;;;;;20.17;63.24;101742.91;5076228;28;45362;-75
2022/08/20 09:02:20;;;;;;;;;5.00;2.25;;;;;20.24;62.93;101745.13;5076340;27;45498;-76
2022/08/20 09:04:45;;;;;;;;;3.00;2.00;;;;;20.28;62.06;101738.78;5077131;27;46157;-76
2022/08/20 09:07:15;;;;;;;;;6.00;2.00;;;;;20.33;62.21;101735.03;5076300;28;45433;-77
2022/08/20 09:09:45;;;;;;;;;5.00;1.00;;;;;20.36;60.74;101746.28;5076616;27;62146;-76
2022/08/20 09:12:17;;;;;;;;;4.00;1.00;;;;;20.39;60.31;101748.78;5076090;27;45450;-76
2022/08/20 09:14:45;;;;;;;;;2.00;1.75;;;;;20.40;61.05;101749.63;5075898;28;45416;-75
2022/08/20 09:17:11;;;;;;;;;4.50;3.00;;;;;20.45;60.65;101747.59;5075679;27;45817;-78
2022/08/20 09:19:36;;;;;;;;;2.25;0.75;;;;;20.54;60.10;101748.84;5076264;28;69199;-78
2022/08/20 09:22:16;;;;;;;;;4.50;2.00;;;;;20.61;59.35;101747.59;5074968;28;69963;-78
2022/08/20 09:24:42;;;;;;;;;2.00;2.00;;;;;20.71;59.79;101751.47;5075688;28;45483;-78
2022/08/20 09:27:07;;;;;;;;;4.00;2.00;;;;;20.77;60.07;101734.41;5075834;27;45357;-77
2022/08/20 09:29:33;;;;;;;;;8.75;2.00;;;;;20.89;59.24;101749.56;5076009;28;45451;-78
2022/08/20 09:32:07;;;;;;;;;2.50;1.50;;;;;20.97;59.07;101736.78;5076532;27;45451;-78
2022/08/20 09:34:41;;;;;;;;;3.00;1.00;;;;;21.11;57.57;101740.41;5076653;27;46235;-78
2022/08/20 09:37:07;;;;;;;;;4.50;2.75;;;;;21.18;57.46;101742.63;5076736;27;45756;-78
2022/08/20 09:39:33;;;;;;;;;2.50;2.00;;;;;21.25;57.44;101735.19;5077071;27;45359;-78
2022/08/20 09:42:34;;;;;;;;;1.25;1.25;;;;;21.33;57.42;101732.06;5076986;27;45466;-78
2022/08/20 09:45:00;;;;;;;;;4.75;2.00;;;;;21.45;56.28;101745.50;5075428;27;45529;-75
2022/08/20 09:47:26;;;;;;;;;2.00;1.00;;;;;21.46;55.09;101741.88;5076286;27;45943;-75
2022/08/20 09:49:51;;;;;;;;;5.25;1.75;;;;;21.51;52.84;101738.09;5075595;28;45695;-75
2022/08/20 09:52:21;;;;;;;;;2.00;1.75;;;;;21.55;53.14;101743.13;5076657;27;45545;-76
2022/08/20 09:54:48;;;;;;;;;2.50;1.00;;;;;21.69;51.84;101749.41;5075156;28;46513;-76
2022/08/20 09:57:14;;;;;;;;;3.25;1.50;;;;;21.94;52.08;101748.78;5076623;27;45443;-76
2022/08/20 09:59:39;;;;;;;;;5.00;1.75;;;;;22.11;51.50;101751.25;5076267;27;48066;-76
2022/08/20 10:02:04;;;;;;;;;2.50;1.00;;;;;22.14;48.93;101742.25;5074144;28;68204;-76
2022/08/20 10:04:30;;;;;;;;;1.00;1.00;;;;;22.22;48.35;101734.69;5074081;27;75168;-76
2022/08/20 10:06:55;;;;;;;;;2.00;2.00;;;;;22.17;49.10;101736.75;5076448;28;45277;-76
2022/08/20 10:09:21;;;;;;;;;2.00;2.00;;;;;22.13;50.01;101730.78;5075649;28;52334;-78
2022/08/20 10:11:46;;;;;;;;;3.00;1.00;;;;;22.18;50.38;101727.88;5076246;28;45397;-77
2022/08/20 10:14:11;;;;;;;;;2.75;2.00;;;;;22.21;50.29;101723.22;5075139;28;74923;-76
2022/08/20 10:16:37;;;;;;;;;3.00;2.00;;;;;22.27;50.62;101724.69;5074971;28;68322;-77
2022/08/20 10:19:03;;;;;;;;;3.00;2.00;;;;;22.37;50.76;101719.63;5075277;28;70461;-76
2022/08/20 10:21:30;;;;;;;;;3.25;1.50;;;;;22.50;48.20;101719.72;5075135;27;45496;-76
2022/08/20 10:23:56;;;;;;;;;3.50;2.00;;;;;22.58;48.66;101720.06;5076011;27;47429;-77
2022/08/20 10:26:21;;;;;;;;;1.25;1.25;;;;;22.64;48.28;101717.03;5074921;27;45326;-76
2022/08/20 10:28:47;;;;;;;;;2.50;2.00;;;;;22.76;49.51;101715.38;5074808;28;48383;-76
2022/08/20 10:31:12;;;;;;;;;3.50;2.00;;;;;22.81;48.01;101716.78;5073393;28;69062;-77
2022/08/20 10:33:39;;;;;;;;;3.00;1.50;;;;;22.87;48.02;101710.22;5075524;27;59225;-76
2022/08/20 10:36:15;;;;;;;;;6.50;2.00;;;;;22.96;48.47;101709.63;5074608;28;45398;-76
2022/08/20 10:38:41;;;;;;;;;1.50;1.00;;;;;23.05;47.32;101710.84;5074935;27;45250;-76
2022/08/20 10:41:07;;;;;;;;;1.75;0.75;;;;;23.04;47.38;101709.13;5076176;27;45388;-76
2022/08/20 10:43:32;;;;;;;;;1.75;1.75;;;;;23.05;47.50;101705.53;5074435;28;46070;-77
2022/08/20 10:45:58;;;;;;;;;1.00;1.00;;;;;23.11;45.49;101710.44;5074388;28;45361;-76
2022/08/20 10:48:23;;;;;;;;;3.00;1.75;;;;;23.11;43.03;101705.13;5073821;28;66262;-76
2022/08/20 10:50:49;;;;;;;;;3.50;1.25;;;;;23.14;44.31;101707.59;5074585;28;45318;-77
2022/08/20 10:53:15;;;;;;;;;3.50;0.50;;;;;23.23;44.25;101703.44;5074160;28;46387;-77
2022/08/20 10:55:40;;;;;;;;;1.50;1.50;;;;;23.32;43.54;101708.13;5074484;28;45414;-77
2022/08/20 10:58:06;;;;;;;;;3.75;1.75;;;;;23.45;42.99;101705.50;5074164;28;56316;-77
2022/08/20 11:00:32;;;;;;;;;3.00;1.25;;;;;23.56;43.46;101699.47;5075424;27;45234;-77
2022/08/20 11:02:58;;;;;;;;;1.75;1.00;;;;;23.60;40.67;101703.59;5075652;27;45492;-77
2022/08/20 11:05:23;;;;;;;;;1.50;1.50;;;;;23.63;41.84;101702.56;5074752;27;71848;-77
2022/08/20 11:07:48;;;;;;;;;3.75;1.75;;;;;23.65;42.70;101697.97;5074590;28;68794;-76
2022/08/20 11:10:14;;;;;;;;;2.25;2.00;;;;;23.74;42.47;101702.66;5075231;28;51098;-77
2022/08/20 11:12:39;;;;;;;;;2.25;2.25;;;;;23.81;42.71;101703.09;5074334;27;73281;-76
2022/08/20 11:15:05;;;;;;;;;1.75;1.75;;;;;23.99;43.28;101711.59;5073880;28;45364;-76
2022/08/20 11:17:33;;;;;;;;;3.50;2.00;;;;;24.25;43.08;101704.44;5075629;28;45331;-77
2022/08/20 11:19:59;;;;;;;;;3.25;1.75;;;;;24.33;42.44;101705.59;5074384;28;45520;-76
2022/08/20 11:22:25;;;;;;;;;2.50;0.75;;;;;24.35;42.29;101701.00;5078365;27;52299;-76
2022/08/20 11:24:52;;;;;;;;;2.00;2.00;;;;;24.58;42.17;101697.66;5079000;27;45443;-76
2022/08/20 11:27:31;;;;;;;;;3.00;3.00;;;;;24.95;41.92;101700.28;5079009;27;45336;-76
2022/08/20 11:29:56;;;;;;;;;1.75;1.75;;;;;25.25;39.31;101700.63;5079119;27;45570;-77
2022/08/20 11:32:22;;;;;;;;;1.25;1.25;;;;;25.45;40.48;101703.63;5077288;27;45512;-77